Vosselaar, Belgium
Current Conditions -  °F | °C
As of 1:26 PM on Friday 24 Oct 2014 (Local Time) from EHGR Reporting Station
Broken Clouds Broken Clouds  
Wind Chill: 54°   Ceiling: 3600
Heat Index: 54°   Visibility: 6mi
Dew Point: 52°   Wind: 13mph
Humidity: 94%   Direction: 190°S
Pressure: 30.06"   Gusts: NA
Location:  51.31°N, 4.89°E
Report Text: EHGR 241126Z AUTO 19011KT 9999 FEW010 SCT013 BKN036 12/11 Q1018 REDZ GRN 19010KT 9999 SCT020 BKN035 TEMPO FEW010 BKN015
Loading
Personal Weather Stations






























Interactive Weather Map
Tropical Storm Tracking
New forecast layout! Learn more

10-Day Weather Forecast

Advertisements
Track Severe Weather on mobile